Kemper, Illinois
Current Conditions -  °F | °C
As of 9:35 PM on Sunday 21 Dec 2014 (Local Time) from KALN Reporting Station
Overcast Overcast  
Wind Chill: 34°   Ceiling: 4200
Heat Index: 40°   Visibility: 10mi
Dew Point: 32°   Wind: 10mph
Humidity: 72%   Direction: 110°ESE
Pressure: 29.98"   Gusts: NA
Location:  39.2057°N, 90.1607°W
Report Text: KALN 220335Z AUTO 11009KT 10SM BKN042 OVC055 05/00 A2998 RMK AO2 T00460000 TSNO
Loading
Personal Weather Stations






























Interactive Weather Map New forecast layout! Learn more

10-Day Weather Forecast

Advertisements
Track Severe Weather on mobile